Atlantic - Newfoundland: Past 24 Hour Conditions

 

Chevery

04:00 PM AST 22 September 2014
This table is a summary of hourly weather conditions for the past 24 hours.
Date / Time
(AST)
Wind(knots) Conditions Visibility(km) Pressure(kPa) Air tempC) Relative humidity(%) Dew pointC)
22 September 2014
16:00 SW 8 N/A N/A 99.0 10 100 9
15:00 SSW 9 N/A N/A 98.9 10 100 10
14:00 SW 7 N/A N/A 98.7 10 100 9
13:00 SSW 16 gust 21 N/A N/A 98.7 10 100 10
12:00 SSW 14 gust 19 N/A N/A 98.6 11 100 11
11:00 SSE 15 gust 22 N/A N/A 98.7 13 100 13
10:00 SSE 5 N/A N/A 99.0 12 100 12
9:00 SE 7 N/A N/A 99.4 12 99 11
8:00 E 9 N/A N/A 99.8 13 99 12
7:00 E 9 N/A N/A 100.0 12 99 12
6:00 E 7 N/A N/A 100.3 13 99 12
5:00 ESE 4 N/A N/A 100.5 13 99 13
4:00 E 3 N/A N/A 100.7 10 99 10
3:00 SSE 4 N/A N/A 100.8 10 97 10
2:00 SSW 4 N/A N/A 100.9 10 96 9
1:00 SSW 5 N/A N/A 100.9 9 95 8
0:00 SSW 7 N/A N/A 100.9 9 93 8
21 September 2014
23:00 SW 9 N/A N/A 100.9 9 90 8
22:00 SW 11 gust 17 N/A N/A 100.9 12 86 10
21:00 SW 11 gust 16 N/A N/A 100.8 12 88 10
20:00 SSW 5 N/A N/A 100.9 9 95 8
19:00 SW 6 N/A N/A 100.8 8 96 8
18:00 SSW 8 N/A N/A 100.8 9 95 8
17:00 SSW 7 N/A N/A 100.8 9 95 8
16:00 SSW 8 N/A N/A 100.8 9 95 8
 
Map of Atlantic - Newfoundland marine weather areas Southwestern Grand Banks - 44138 Banquereau - 44139 Tail of the Bank - 44140 Nickerson Bank - 44251 Northeast Burgeo Bank - 44255 Blanc-Sablon Airport Cap Whittle Chevery Natashquan Airport Heath Point Miscou Island Grand Étang Ingonish Beach North Mountain St.Paul Island J.A. Douglas McCurdy Sydney Airport Charlottetown Airport East Point North Cape Argentia Bonavista Burgeo Cape Race Corner Brook Daniel's Harbour Englee Ferolle Point La Scie Port aux Basques Rocky Harbour Sagona Island St. Anthony Airport St. John's Int'l Airport St. Lawrence Stephenville Airport Twillingate Winterland Wreckhouse Cartwright Airport Mary's Harbour Grates Cove Pool's Island Marticot Island Long Pond Îles de la Madeleine Airport
Legend: buoyBuoy land stationLand Station